sensor_id;sensor_type;location;lat;lon;timestamp;pressure;altitude;pressure_sealevel;temperature;humidity
59588;BME280;45412;54.472;18.464;2024-01-11T00:01:00;100645.20;;;-0.22;100.00
59588;BME280;45412;54.472;18.464;2024-01-11T00:03:48;100642.11;;;-0.24;100.00
59588;BME280;45412;54.472;18.464;2024-01-11T00:06:43;100649.63;;;-0.24;100.00
59588;BME280;45412;54.472;18.464;2024-01-11T00:09:31;100648.92;;;-0.24;100.00
59588;BME280;45412;54.472;18.464;2024-01-11T00:12:19;100657.09;;;-0.22;100.00
59588;BME280;45412;54.472;18.464;2024-01-11T00:15:07;100664.46;;;-0.24;100.00
59588;BME280;45412;54.472;18.464;2024-01-11T00:17:56;100673.71;;;-0.24;100.00
59588;BME280;45412;54.472;18.464;2024-01-11T00:20:44;100671.77;;;-0.24;100.00
59588;BME280;45412;54.472;18.464;2024-01-11T00:23:32;100662.86;;;-0.23;100.00
59588;BME280;45412;54.472;18.464;2024-01-11T00:26:20;100655.69;;;-0.22;100.00
59588;BME280;45412;54.472;18.464;2024-01-11T00:29:08;100638.59;;;-0.22;100.00
59588;BME280;45412;54.472;18.464;2024-01-11T00:31:56;100632.30;;;-0.21;100.00
59588;BME280;45412;54.472;18.464;2024-01-11T00:34:45;100628.16;;;-0.23;100.00
59588;BME280;45412;54.472;18.464;2024-01-11T00:37:32;100634.64;;;-0.24;100.00
59588;BME280;45412;54.472;18.464;2024-01-11T00:40:20;100629.69;;;-0.22;100.00
59588;BME280;45412;54.472;18.464;2024-01-11T00:43:08;100617.11;;;-0.21;100.00
59588;BME280;45412;54.472;18.464;2024-01-11T00:45:56;100609.94;;;-0.20;100.00
59588;BME280;45412;54.472;18.464;2024-01-11T00:48:44;100609.70;;;-0.17;100.00
59588;BME280;45412;54.472;18.464;2024-01-11T00:51:32;100610.02;;;-0.15;100.00
59588;BME280;45412;54.472;18.464;2024-01-11T00:54:19;100604.90;;;-0.13;100.00
59588;BME280;45412;54.472;18.464;2024-01-11T00:57:07;100602.41;;;-0.11;100.00
59588;BME280;45412;54.472;18.464;2024-01-11T00:59:55;100615.95;;;-0.09;100.00
59588;BME280;45412;54.472;18.464;2024-01-11T01:02:43;100622.01;;;-0.07;100.00
59588;BME280;45412;54.472;18.464;2024-01-11T01:05:31;100626.00;;;-0.06;100.00
59588;BME280;45412;54.472;18.464;2024-01-11T01:08:19;100634.50;;;-0.04;100.00
59588;BME280;45412;54.472;18.464;2024-01-11T01:11:07;100645.79;;;-0.02;100.00
59588;BME280;45412;54.472;18.464;2024-01-11T01:13:55;100655.00;;;0.00;100.00
59588;BME280;45412;54.472;18.464;2024-01-11T01:16:43;100652.03;;;-0.00;100.00
59588;BME280;45412;54.472;18.464;2024-01-11T01:19:31;100648.63;;;0.03;100.00
59588;BME280;45412;54.472;18.464;2024-01-11T01:22:18;100634.10;;;0.05;100.00
59588;BME280;45412;54.472;18.464;2024-01-11T01:25:07;100621.98;;;0.08;100.00
59588;BME280;45412;54.472;18.464;2024-01-11T01:27:55;100602.77;;;0.09;100.00
59588;BME280;45412;54.472;18.464;2024-01-11T01:30:44;100590.27;;;0.07;100.00
59588;BME280;45412;54.472;18.464;2024-01-11T01:33:32;100564.11;;;0.06;100.00
59588;BME280;45412;54.472;18.464;2024-01-11T01:36:20;100563.77;;;0.06;100.00
59588;BME280;45412;54.472;18.464;2024-01-11T01:39:08;100558.20;;;0.05;100.00
59588;BME280;45412;54.472;18.464;2024-01-11T01:41:56;100574.08;;;0.06;100.00
59588;BME280;45412;54.472;18.464;2024-01-11T01:44:43;100573.45;;;0.03;100.00
59588;BME280;45412;54.472;18.464;2024-01-11T01:47:31;100570.21;;;0.06;100.00
59588;BME280;45412;54.472;18.464;2024-01-11T01:50:19;100551.87;;;0.07;100.00
59588;BME280;45412;54.472;18.464;2024-01-11T01:53:08;100549.75;;;0.08;100.00
59588;BME280;45412;54.472;18.464;2024-01-11T01:55:57;100551.91;;;0.06;100.00
59588;BME280;45412;54.472;18.464;2024-01-11T01:58:45;100549.81;;;0.06;100.00
59588;BME280;45412;54.472;18.464;2024-01-11T02:01:34;100556.27;;;0.05;100.00
59588;BME280;45412;54.472;18.464;2024-01-11T02:04:22;100560.69;;;0.03;100.00
59588;BME280;45412;54.472;18.464;2024-01-11T02:07:10;100559.20;;;0.01;100.00
59588;BME280;45412;54.472;18.464;2024-01-11T02:09:58;100543.22;;;-0.03;100.00
59588;BME280;45412;54.472;18.464;2024-01-11T02:12:46;100525.48;;;-0.05;100.00
59588;BME280;45412;54.472;18.464;2024-01-11T02:15:34;100520.36;;;-0.09;100.00
59588;BME280;45412;54.472;18.464;2024-01-11T02:18:22;100518.09;;;-0.09;100.00
59588;BME280;45412;54.472;18.464;2024-01-11T02:21:14;100518.19;;;-0.13;100.00
59588;BME280;45412;54.472;18.464;2024-01-11T02:24:07;100523.74;;;-0.11;100.00
59588;BME280;45412;54.472;18.464;2024-01-11T02:27:04;100519.74;;;-0.12;100.00
59588;BME280;45412;54.472;18.464;2024-01-11T02:29:52;100520.48;;;-0.14;100.00
59588;BME280;45412;54.472;18.464;2024-01-11T02:32:42;100513.37;;;-0.15;100.00
59588;BME280;45412;54.472;18.464;2024-01-11T02:35:31;100526.62;;;-0.15;100.00
59588;BME280;45412;54.472;18.464;2024-01-11T02:38:19;100525.77;;;-0.16;100.00
59588;BME280;45412;54.472;18.464;2024-01-11T02:41:07;100522.46;;;-0.16;100.00
59588;BME280;45412;54.472;18.464;2024-01-11T02:43:55;100504.54;;;-0.18;100.00
59588;BME280;45412;54.472;18.464;2024-01-11T02:46:44;100489.73;;;-0.18;100.00
59588;BME280;45412;54.472;18.464;2024-01-11T02:49:31;100480.81;;;-0.18;100.00
59588;BME280;45412;54.472;18.464;2024-01-11T02:52:19;100472.09;;;-0.17;100.00
59588;BME280;45412;54.472;18.464;2024-01-11T02:55:08;100461.77;;;-0.16;100.00
59588;BME280;45412;54.472;18.464;2024-01-11T02:57:57;100460.36;;;-0.16;100.00
59588;BME280;45412;54.472;18.464;2024-01-11T03:00:45;100455.34;;;-0.18;100.00
59588;BME280;45412;54.472;18.464;2024-01-11T03:03:33;100469.69;;;-0.19;100.00
59588;BME280;45412;54.472;18.464;2024-01-11T03:06:21;100461.17;;;-0.20;100.00
59588;BME280;45412;54.472;18.464;2024-01-11T03:09:10;100453.89;;;-0.22;100.00
59588;BME280;45412;54.472;18.464;2024-01-11T03:11:58;100456.37;;;-0.24;100.00
59588;BME280;45412;54.472;18.464;2024-01-11T03:14:46;100460.58;;;-0.24;100.00
59588;BME280;45412;54.472;18.464;2024-01-11T03:17:34;100466.02;;;-0.25;100.00
59588;BME280;45412;54.472;18.464;2024-01-11T03:20:22;100471.90;;;-0.24;100.00
59588;BME280;45412;54.472;18.464;2024-01-11T03:23:12;100468.23;;;-0.23;100.00
59588;BME280;45412;54.472;18.464;2024-01-11T03:26:00;100467.02;;;-0.24;100.00
59588;BME280;45412;54.472;18.464;2024-01-11T03:28:48;100463.68;;;-0.22;100.00
59588;BME280;45412;54.472;18.464;2024-01-11T03:31:36;100459.60;;;-0.21;100.00
59588;BME280;45412;54.472;18.464;2024-01-11T03:34:25;100470.58;;;-0.20;100.00
59588;BME280;45412;54.472;18.464;2024-01-11T03:37:13;100478.04;;;-0.18;100.00
59588;BME280;45412;54.472;18.464;2024-01-11T03:40:03;100479.41;;;-0.17;100.00
59588;BME280;45412;54.472;18.464;2024-01-11T03:42:51;100479.02;;;-0.15;100.00
59588;BME280;45412;54.472;18.464;2024-01-11T03:45:39;100479.69;;;-0.14;100.00
59588;BME280;45412;54.472;18.464;2024-01-11T03:48:27;100474.73;;;-0.13;100.00
59588;BME280;45412;54.472;18.464;2024-01-11T03:51:14;100471.80;;;-0.13;100.00
59588;BME280;45412;54.472;18.464;2024-01-11T03:54:02;100469.66;;;-0.12;100.00
59588;BME280;45412;54.472;18.464;2024-01-11T03:56:50;100461.48;;;-0.12;100.00
59588;BME280;45412;54.472;18.464;2024-01-11T03:59:38;100465.10;;;-0.11;100.00
59588;BME280;45412;54.472;18.464;2024-01-11T04:02:27;100467.35;;;-0.10;100.00
59588;BME280;45412;54.472;18.464;2024-01-11T04:05:15;100457.58;;;-0.10;100.00
59588;BME280;45412;54.472;18.464;2024-01-11T04:08:07;100463.69;;;-0.10;100.00
59588;BME280;45412;54.472;18.464;2024-01-11T04:10:55;100448.67;;;-0.10;100.00
59588;BME280;45412;54.472;18.464;2024-01-11T04:13:43;100442.32;;;-0.07;100.00
59588;BME280;45412;54.472;18.464;2024-01-11T04:16:31;100432.40;;;-0.07;100.00
59588;BME280;45412;54.472;18.464;2024-01-11T04:19:19;100429.04;;;-0.06;100.00
59588;BME280;45412;54.472;18.464;2024-01-11T04:22:10;100424.96;;;-0.04;100.00
59588;BME280;45412;54.472;18.464;2024-01-11T04:24:58;100425.31;;;-0.04;100.00
59588;BME280;45412;54.472;18.464;2024-01-11T04:27:46;100425.27;;;-0.03;100.00
59588;BME280;45412;54.472;18.464;2024-01-11T04:30:33;100423.20;;;-0.03;100.00
59588;BME280;45412;54.472;18.464;2024-01-11T04:33:21;100413.30;;;-0.04;100.00
59588;BME280;45412;54.472;18.464;2024-01-11T04:36:10;100404.03;;;-0.04;100.00
59588;BME280;45412;54.472;18.464;2024-01-11T04:38:58;100398.95;;;-0.03;100.00
59588;BME280;45412;54.472;18.464;2024-01-11T04:41:46;100397.86;;;-0.02;100.00
59588;BME280;45412;54.472;18.464;2024-01-11T04:44:34;100405.89;;;-0.02;100.00
59588;BME280;45412;54.472;18.464;2024-01-11T04:47:22;100403.38;;;0.01;100.00
59588;BME280;45412;54.472;18.464;2024-01-11T04:50:09;100396.55;;;0.02;100.00
59588;BME280;45412;54.472;18.464;2024-01-11T04:52:57;100398.58;;;0.04;100.00
59588;BME280;45412;54.472;18.464;2024-01-11T04:55:45;100391.96;;;0.03;100.00
59588;BME280;45412;54.472;18.464;2024-01-11T04:58:33;100387.27;;;0.03;100.00
59588;BME280;45412;54.472;18.464;2024-01-11T05:01:20;100377.48;;;0.04;100.00
59588;BME280;45412;54.472;18.464;2024-01-11T05:04:09;100385.34;;;0.04;100.00
59588;BME280;45412;54.472;18.464;2024-01-11T05:06:57;100386.04;;;0.03;100.00
59588;BME280;45412;54.472;18.464;2024-01-11T05:09:45;100386.70;;;0.05;100.00
59588;BME280;45412;54.472;18.464;2024-01-11T05:12:32;100402.57;;;0.05;100.00
59588;BME280;45412;54.472;18.464;2024-01-11T05:15:20;100409.86;;;0.06;100.00
59588;BME280;45412;54.472;18.464;2024-01-11T05:18:08;100402.98;;;0.09;100.00
59588;BME280;45412;54.472;18.464;2024-01-11T05:20:56;100399.92;;;0.06;100.00
59588;BME280;45412;54.472;18.464;2024-01-11T05:23:44;100403.66;;;0.10;100.00
59588;BME280;45412;54.472;18.464;2024-01-11T05:26:32;100400.91;;;0.08;100.00
59588;BME280;45412;54.472;18.464;2024-01-11T05:29:20;100396.48;;;0.10;100.00
59588;BME280;45412;54.472;18.464;2024-01-11T05:32:09;100388.83;;;0.09;100.00
59588;BME280;45412;54.472;18.464;2024-01-11T05:34:57;100403.29;;;0.10;100.00
59588;BME280;45412;54.472;18.464;2024-01-11T05:37:45;100411.08;;;0.12;100.00
59588;BME280;45412;54.472;18.464;2024-01-11T05:40:32;100404.23;;;0.13;100.00
59588;BME280;45412;54.472;18.464;2024-01-11T05:43:24;100395.81;;;0.15;100.00
59588;BME280;45412;54.472;18.464;2024-01-11T05:46:12;100398.23;;;0.15;100.00
59588;BME280;45412;54.472;18.464;2024-01-11T05:49:00;100398.55;;;0.17;100.00
59588;BME280;45412;54.472;18.464;2024-01-11T05:51:48;100401.15;;;0.18;100.00
59588;BME280;45412;54.472;18.464;2024-01-11T05:54:36;100399.06;;;0.17;100.00
59588;BME280;45412;54.472;18.464;2024-01-11T05:57:24;100398.17;;;0.18;100.00
59588;BME280;45412;54.472;18.464;2024-01-11T06:00:13;100404.21;;;0.20;100.00
59588;BME280;45412;54.472;18.464;2024-01-11T06:03:02;100407.52;;;0.21;100.00
59588;BME280;45412;54.472;18.464;2024-01-11T06:05:50;100421.92;;;0.23;100.00
59588;BME280;45412;54.472;18.464;2024-01-11T06:08:38;100420.30;;;0.25;100.00
59588;BME280;45412;54.472;18.464;2024-01-11T06:11:27;100407.01;;;0.26;100.00
59588;BME280;45412;54.472;18.464;2024-01-11T06:14:15;100405.45;;;0.26;100.00
59588;BME280;45412;54.472;18.464;2024-01-11T06:17:03;100405.98;;;0.26;100.00
59588;BME280;45412;54.472;18.464;2024-01-11T06:19:51;100405.48;;;0.25;100.00
59588;BME280;45412;54.472;18.464;2024-01-11T06:22:39;100395.58;;;0.24;100.00
59588;BME280;45412;54.472;18.464;2024-01-11T06:25:30;100390.33;;;0.23;100.00
59588;BME280;45412;54.472;18.464;2024-01-11T06:28:18;100386.58;;;0.21;100.00
59588;BME280;45412;54.472;18.464;2024-01-11T06:31:06;100378.73;;;0.20;100.00
59588;BME280;45412;54.472;18.464;2024-01-11T06:33:54;100385.72;;;0.20;100.00
59588;BME280;45412;54.472;18.464;2024-01-11T06:36:43;100388.70;;;0.20;100.00
59588;BME280;45412;54.472;18.464;2024-01-11T06:39:30;100395.00;;;0.19;100.00
59588;BME280;45412;54.472;18.464;2024-01-11T06:42:18;100401.14;;;0.18;100.00
59588;BME280;45412;54.472;18.464;2024-01-11T06:45:07;100405.35;;;0.18;100.00
59588;BME280;45412;54.472;18.464;2024-01-11T06:47:55;100409.02;;;0.17;100.00
59588;BME280;45412;54.472;18.464;2024-01-11T06:50:45;100406.05;;;0.17;100.00
59588;BME280;45412;54.472;18.464;2024-01-11T06:53:33;100410.55;;;0.18;100.00
59588;BME280;45412;54.472;18.464;2024-01-11T06:56:23;100416.09;;;0.20;100.00
59588;BME280;45412;54.472;18.464;2024-01-11T06:59:12;100413.64;;;0.20;100.00
59588;BME280;45412;54.472;18.464;2024-01-11T07:02:00;100421.98;;;0.21;100.00
59588;BME280;45412;54.472;18.464;2024-01-11T07:04:48;100424.45;;;0.21;100.00
59588;BME280;45412;54.472;18.464;2024-01-11T07:07:36;100420.06;;;0.21;100.00
59588;BME280;45412;54.472;18.464;2024-01-11T07:10:23;100428.30;;;0.20;100.00
59588;BME280;45412;54.472;18.464;2024-01-11T07:13:11;100441.48;;;0.23;100.00
59588;BME280;45412;54.472;18.464;2024-01-11T07:16:03;100435.20;;;0.23;100.00
59588;BME280;45412;54.472;18.464;2024-01-11T07:18:51;100438.27;;;0.25;100.00
59588;BME280;45412;54.472;18.464;2024-01-11T07:21:39;100434.70;;;0.28;100.00
59588;BME280;45412;54.472;18.464;2024-01-11T07:24:27;100436.59;;;0.29;100.00
59588;BME280;45412;54.472;18.464;2024-01-11T07:27:23;100435.31;;;0.31;100.00
59588;BME280;45412;54.472;18.464;2024-01-11T07:30:12;100428.55;;;0.29;100.00
59588;BME280;45412;54.472;18.464;2024-01-11T07:33:01;100434.66;;;0.29;100.00
59588;BME280;45412;54.472;18.464;2024-01-11T07:35:49;100434.09;;;0.31;100.00
59588;BME280;45412;54.472;18.464;2024-01-11T07:38:38;100436.09;;;0.34;100.00
59588;BME280;45412;54.472;18.464;2024-01-11T07:41:26;100436.81;;;0.33;100.00
59588;BME280;45412;54.472;18.464;2024-01-11T07:44:14;100437.61;;;0.37;100.00
59588;BME280;45412;54.472;18.464;2024-01-11T07:47:02;100437.34;;;0.39;100.00
59588;BME280;45412;54.472;18.464;2024-01-11T07:49:50;100438.70;;;0.41;100.00
59588;BME280;45412;54.472;18.464;2024-01-11T07:52:39;100441.10;;;0.42;100.00
59588;BME280;45412;54.472;18.464;2024-01-11T07:55:30;100437.84;;;0.45;100.00
59588;BME280;45412;54.472;18.464;2024-01-11T07:58:19;100434.75;;;0.50;100.00
59588;BME280;45412;54.472;18.464;2024-01-11T08:01:09;100426.98;;;0.53;100.00
59588;BME280;45412;54.472;18.464;2024-01-11T08:03:57;100437.20;;;0.56;100.00
59588;BME280;45412;54.472;18.464;2024-01-11T08:06:45;100433.44;;;0.59;100.00
59588;BME280;45412;54.472;18.464;2024-01-11T08:09:33;100436.57;;;0.60;100.00
59588;BME280;45412;54.472;18.464;2024-01-11T08:12:22;100437.17;;;0.62;100.00
59588;BME280;45412;54.472;18.464;2024-01-11T08:15:16;100439.02;;;0.65;100.00
59588;BME280;45412;54.472;18.464;2024-01-11T08:18:08;100433.79;;;0.70;100.00
59588;BME280;45412;54.472;18.464;2024-01-11T08:20:59;100427.60;;;0.78;100.00
59588;BME280;45412;54.472;18.464;2024-01-11T08:23:50;100438.80;;;0.94;100.00
59588;BME280;45412;54.472;18.464;2024-01-11T08:26:41;100430.51;;;1.03;100.00
59588;BME280;45412;54.472;18.464;2024-01-11T08:29:32;100426.82;;;1.14;100.00
59588;BME280;45412;54.472;18.464;2024-01-11T08:32:23;100419.87;;;1.23;100.00
59588;BME280;45412;54.472;18.464;2024-01-11T08:35:21;100422.77;;;1.35;100.00
59588;BME280;45412;54.472;18.464;2024-01-11T08:38:11;100427.64;;;1.42;100.00
59588;BME280;45412;54.472;18.464;2024-01-11T08:41:01;100427.00;;;1.50;100.00
59588;BME280;45412;54.472;18.464;2024-01-11T08:43:53;100426.97;;;1.61;100.00
59588;BME280;45412;54.472;18.464;2024-01-11T08:46:46;100418.91;;;1.66;100.00
59588;BME280;45412;54.472;18.464;2024-01-11T08:49:38;100415.30;;;1.70;100.00
59588;BME280;45412;54.472;18.464;2024-01-11T08:52:28;100416.23;;;2.12;100.00
59588;BME280;45412;54.472;18.464;2024-01-11T08:55:16;100422.85;;;2.46;100.00
59588;BME280;45412;54.472;18.464;2024-01-11T08:58:04;100421.31;;;2.54;100.00
59588;BME280;45412;54.472;18.464;2024-01-11T09:00:51;100410.02;;;2.56;100.00
59588;BME280;45412;54.472;18.464;2024-01-11T09:03:40;100398.21;;;2.76;100.00
59588;BME280;45412;54.472;18.464;2024-01-11T09:06:29;100399.55;;;3.33;100.00
59588;BME280;45412;54.472;18.464;2024-01-11T09:09:17;100411.03;;;4.51;99.74
59588;BME280;45412;54.472;18.464;2024-01-11T09:12:05;100405.62;;;4.53;98.59
59588;BME280;45412;54.472;18.464;2024-01-11T09:14:54;100404.63;;;4.37;97.44
59588;BME280;45412;54.472;18.464;2024-01-11T09:17:42;100410.66;;;4.21;98.12
59588;BME280;45412;54.472;18.464;2024-01-11T09:20:30;100410.51;;;4.00;97.98
59588;BME280;45412;54.472;18.464;2024-01-11T09:23:19;100410.55;;;3.80;98.01
59588;BME280;45412;54.472;18.464;2024-01-11T09:26:08;100405.76;;;3.68;99.34
59588;BME280;45412;54.472;18.464;2024-01-11T09:28:56;100407.18;;;3.64;99.84
59588;BME280;45412;54.472;18.464;2024-01-11T09:31:44;100402.90;;;3.49;99.91
59588;BME280;45412;54.472;18.464;2024-01-11T09:34:34;100405.52;;;3.42;100.00
59588;BME280;45412;54.472;18.464;2024-01-11T09:37:22;100402.61;;;3.31;99.94
59588;BME280;45412;54.472;18.464;2024-01-11T09:40:10;100408.98;;;3.34;100.00
59588;BME280;45412;54.472;18.464;2024-01-11T09:43:00;100409.65;;;3.14;100.00
59588;BME280;45412;54.472;18.464;2024-01-11T09:45:52;100409.08;;;3.02;100.00
59588;BME280;45412;54.472;18.464;2024-01-11T09:48:43;100403.63;;;2.89;100.00
59588;BME280;45412;54.472;18.464;2024-01-11T09:51:34;100408.40;;;2.88;100.00
59588;BME280;45412;54.472;18.464;2024-01-11T09:54:23;100408.33;;;2.82;100.00
59588;BME280;45412;54.472;18.464;2024-01-11T09:57:14;100393.95;;;2.82;100.00
59588;BME280;45412;54.472;18.464;2024-01-11T10:00:08;100409.28;;;2.84;100.00
59588;BME280;45412;54.472;18.464;2024-01-11T10:02:57;100404.96;;;2.82;100.00
59588;BME280;45412;54.472;18.464;2024-01-11T10:05:46;100404.27;;;2.82;100.00
59588;BME280;45412;54.472;18.464;2024-01-11T10:08:36;100407.34;;;2.89;100.00
59588;BME280;45412;54.472;18.464;2024-01-11T10:11:24;100402.90;;;2.95;100.00
59588;BME280;45412;54.472;18.464;2024-01-11T10:14:12;100412.02;;;2.99;100.00
59588;BME280;45412;54.472;18.464;2024-01-11T10:17:00;100409.90;;;2.95;100.00
59588;BME280;45412;54.472;18.464;2024-01-11T10:19:49;100417.08;;;2.86;100.00
59588;BME280;45412;54.472;18.464;2024-01-11T10:22:41;100415.05;;;2.80;100.00
59588;BME280;45412;54.472;18.464;2024-01-11T10:25:29;100415.36;;;2.71;100.00
59588;BME280;45412;54.472;18.464;2024-01-11T10:28:17;100417.64;;;2.67;100.00
59588;BME280;45412;54.472;18.464;2024-01-11T10:31:06;100410.19;;;2.65;100.00
59588;BME280;45412;54.472;18.464;2024-01-11T10:33:57;100409.11;;;2.62;100.00
59588;BME280;45412;54.472;18.464;2024-01-11T10:36:45;100408.50;;;2.60;100.00
59588;BME280;45412;54.472;18.464;2024-01-11T10:39:34;100405.83;;;2.56;100.00
59588;BME280;45412;54.472;18.464;2024-01-11T10:42:24;100404.39;;;2.52;100.00
59588;BME280;45412;54.472;18.464;2024-01-11T10:45:17;100404.83;;;2.50;100.00
59588;BME280;45412;54.472;18.464;2024-01-11T10:48:15;100400.46;;;2.45;100.00
59588;BME280;45412;54.472;18.464;2024-01-11T10:51:08;100410.17;;;2.43;100.00
59588;BME280;45412;54.472;18.464;2024-01-11T10:53:59;100416.95;;;2.45;100.00
59588;BME280;45412;54.472;18.464;2024-01-11T10:56:49;100417.11;;;2.45;100.00
59588;BME280;45412;54.472;18.464;2024-01-11T10:59:39;100427.98;;;2.44;100.00
59588;BME280;45412;54.472;18.464;2024-01-11T11:02:34;100436.58;;;2.44;100.00
59588;BME280;45412;54.472;18.464;2024-01-11T11:05:24;100439.63;;;2.46;100.00
59588;BME280;45412;54.472;18.464;2024-01-11T11:08:13;100431.06;;;2.51;100.00
59588;BME280;45412;54.472;18.464;2024-01-11T11:11:03;100426.48;;;2.52;100.00
59588;BME280;45412;54.472;18.464;2024-01-11T11:13:58;100426.41;;;2.54;100.00
59588;BME280;45412;54.472;18.464;2024-01-11T11:16:48;100424.70;;;2.57;100.00
59588;BME280;45412;54.472;18.464;2024-01-11T11:19:36;100423.61;;;2.58;100.00
59588;BME280;45412;54.472;18.464;2024-01-11T11:22:27;100421.13;;;2.59;100.00
59588;BME280;45412;54.472;18.464;2024-01-11T11:25:25;100419.75;;;2.59;100.00
59588;BME280;45412;54.472;18.464;2024-01-11T11:28:17;100419.38;;;2.54;100.00
59588;BME280;45412;54.472;18.464;2024-01-11T11:31:05;100415.53;;;2.54;100.00
59588;BME280;45412;54.472;18.464;2024-01-11T11:33:54;100412.07;;;2.58;100.00
59588;BME280;45412;54.472;18.464;2024-01-11T11:36:44;100409.10;;;2.57;100.00
59588;BME280;45412;54.472;18.464;2024-01-11T11:39:33;100409.20;;;2.55;100.00
59588;BME280;45412;54.472;18.464;2024-01-11T11:42:23;100409.02;;;2.50;100.00
59588;BME280;45412;54.472;18.464;2024-01-11T11:45:11;100413.36;;;2.47;100.00
59588;BME280;45412;54.472;18.464;2024-01-11T11:48:56;100407.20;;;2.52;100.00
59588;BME280;45412;54.472;18.464;2024-01-11T11:51:43;100411.28;;;2.55;100.00
59588;BME280;45412;54.472;18.464;2024-01-11T11:54:32;100404.66;;;2.59;100.00
59588;BME280;45412;54.472;18.464;2024-01-11T11:57:21;100406.09;;;2.63;100.00
59588;BME280;45412;54.472;18.464;2024-01-11T12:00:10;100397.82;;;2.63;100.00
59588;BME280;45412;54.472;18.464;2024-01-11T12:03:01;100400.48;;;2.67;100.00
59588;BME280;45412;54.472;18.464;2024-01-11T12:05:51;100398.52;;;2.68;100.00
59588;BME280;45412;54.472;18.464;2024-01-11T12:08:42;100403.35;;;2.65;100.00
59588;BME280;45412;54.472;18.464;2024-01-11T12:11:30;100406.91;;;2.64;100.00
59588;BME280;45412;54.472;18.464;2024-01-11T12:14:20;100403.50;;;2.62;100.00
59588;BME280;45412;54.472;18.464;2024-01-11T12:17:09;100407.34;;;2.62;100.00
59588;BME280;45412;54.472;18.464;2024-01-11T12:19:57;100402.61;;;2.62;100.00
59588;BME280;45412;54.472;18.464;2024-01-11T12:22:45;100402.85;;;2.60;100.00
59588;BME280;45412;54.472;18.464;2024-01-11T12:25:33;100400.20;;;2.57;100.00
59588;BME280;45412;54.472;18.464;2024-01-11T12:28:22;100394.27;;;2.56;100.00
59588;BME280;45412;54.472;18.464;2024-01-11T12:31:12;100390.48;;;2.53;100.00
59588;BME280;45412;54.472;18.464;2024-01-11T12:34:01;100385.27;;;2.53;100.00
59588;BME280;45412;54.472;18.464;2024-01-11T12:36:55;100387.39;;;2.57;100.00
59588;BME280;45412;54.472;18.464;2024-01-11T12:39:48;100402.19;;;2.64;100.00
59588;BME280;45412;54.472;18.464;2024-01-11T12:42:36;100398.00;;;2.59;100.00
59588;BME280;45412;54.472;18.464;2024-01-11T12:45:25;100407.63;;;2.59;100.00
59588;BME280;45412;54.472;18.464;2024-01-11T12:48:17;100405.57;;;2.58;100.00
59588;BME280;45412;54.472;18.464;2024-01-11T12:51:06;100395.20;;;2.54;100.00
59588;BME280;45412;54.472;18.464;2024-01-11T12:54:12;100396.30;;;2.57;100.00
59588;BME280;45412;54.472;18.464;2024-01-11T12:57:07;100397.32;;;2.59;100.00
59588;BME280;45412;54.472;18.464;2024-01-11T13:00:09;100395.98;;;2.61;100.00
59588;BME280;45412;54.472;18.464;2024-01-11T13:02:59;100393.88;;;2.61;100.00
59588;BME280;45412;54.472;18.464;2024-01-11T13:05:47;100395.75;;;2.63;100.00
59588;BME280;45412;54.472;18.464;2024-01-11T13:08:37;100400.24;;;2.64;100.00
59588;BME280;45412;54.472;18.464;2024-01-11T13:11:27;100403.38;;;2.65;100.00
59588;BME280;45412;54.472;18.464;2024-01-11T13:14:16;100406.05;;;2.59;100.00
59588;BME280;45412;54.472;18.464;2024-01-11T13:17:07;100401.23;;;2.52;100.00
59588;BME280;45412;54.472;18.464;2024-01-11T13:19:55;100401.13;;;2.51;100.00
59588;BME280;45412;54.472;18.464;2024-01-11T13:22:44;100409.37;;;2.50;100.00
59588;BME280;45412;54.472;18.464;2024-01-11T13:25:31;100415.46;;;2.51;100.00
59588;BME280;45412;54.472;18.464;2024-01-11T13:28:19;100423.79;;;2.53;100.00
59588;BME280;45412;54.472;18.464;2024-01-11T13:31:07;100424.73;;;2.56;100.00
59588;BME280;45412;54.472;18.464;2024-01-11T13:33:58;100426.41;;;2.58;100.00
59588;BME280;45412;54.472;18.464;2024-01-11T13:36:46;100434.50;;;2.58;100.00
59588;BME280;45412;54.472;18.464;2024-01-11T13:39:34;100440.34;;;2.56;100.00
59588;BME280;45412;54.472;18.464;2024-01-11T13:42:22;100443.84;;;2.56;100.00
59588;BME280;45412;54.472;18.464;2024-01-11T13:45:10;100443.66;;;2.61;100.00
59588;BME280;45412;54.472;18.464;2024-01-11T13:48:00;100450.41;;;2.58;100.00
59588;BME280;45412;54.472;18.464;2024-01-11T13:50:48;100446.45;;;2.56;100.00
59588;BME280;45412;54.472;18.464;2024-01-11T13:53:36;100452.45;;;2.55;100.00
59588;BME280;45412;54.472;18.464;2024-01-11T13:56:24;100448.66;;;2.49;100.00
59588;BME280;45412;54.472;18.464;2024-01-11T13:59:12;100450.01;;;2.46;100.00
59588;BME280;45412;54.472;18.464;2024-01-11T14:02:01;100450.83;;;2.43;100.00
59588;BME280;45412;54.472;18.464;2024-01-11T14:04:49;100450.78;;;2.39;100.00
59588;BME280;45412;54.472;18.464;2024-01-11T14:07:39;100458.79;;;2.36;100.00
59588;BME280;45412;54.472;18.464;2024-01-11T14:10:27;100463.17;;;2.31;100.00
59588;BME280;45412;54.472;18.464;2024-01-11T14:13:16;100459.85;;;2.26;100.00
59588;BME280;45412;54.472;18.464;2024-01-11T14:16:04;100465.55;;;2.23;100.00
59588;BME280;45412;54.472;18.464;2024-01-11T14:18:52;100463.39;;;2.20;100.00
59588;BME280;45412;54.472;18.464;2024-01-11T14:21:41;100474.42;;;2.15;100.00
59588;BME280;45412;54.472;18.464;2024-01-11T14:24:29;100478.80;;;2.11;100.00
59588;BME280;45412;54.472;18.464;2024-01-11T14:27:23;100478.11;;;2.05;100.00
59588;BME280;45412;54.472;18.464;2024-01-11T14:30:12;100481.02;;;2.02;100.00